createdAt,value
2019-05-17T00:01:52.581Z,946.1
2019-05-17T00:04:59.598Z,946.1
2019-05-17T00:08:08.220Z,946.2
2019-05-17T00:11:16.650Z,946.2
2019-05-17T00:14:23.200Z,946.1
2019-05-17T00:17:31.517Z,946.2
2019-05-17T00:20:38.807Z,946.2
2019-05-17T00:23:47.607Z,946.1
2019-05-17T00:26:53.911Z,946.1
2019-05-17T00:30:00.038Z,946
2019-05-17T00:33:08.950Z,946.1
2019-05-17T00:36:17.605Z,946.1
2019-05-17T00:39:24.047Z,946.1
2019-05-17T00:42:32.712Z,946.1
2019-05-17T00:45:41.463Z,946.1
2019-05-17T00:48:47.929Z,946.1
2019-05-17T00:51:54.083Z,946.1
2019-05-17T00:55:02.291Z,946
2019-05-17T00:58:08.407Z,946.1
2019-05-17T01:01:17.010Z,946.2
2019-05-17T01:04:23.333Z,946.2
2019-05-17T01:07:31.963Z,946.2
2019-05-17T01:10:38.337Z,946.2
2019-05-17T01:13:46.334Z,946.1
2019-05-17T01:16:53.010Z,946.1
2019-05-17T01:20:01.437Z,946.1
2019-05-17T01:23:08.946Z,946.2
2019-05-17T01:26:15.181Z,946.2
2019-05-17T01:29:23.365Z,946.2
2019-05-17T01:32:31.814Z,946.1
2019-05-17T01:35:38.794Z,946.1
2019-05-17T01:38:47.465Z,946
2019-05-17T01:41:53.681Z,946
2019-05-17T01:45:02.275Z,946.1
2019-05-17T01:48:08.780Z,946
2019-05-17T01:51:17.552Z,946
2019-05-17T01:54:23.810Z,946
2019-05-17T01:57:32.400Z,945.9
2019-05-17T02:00:41.428Z,945.9
2019-05-17T02:03:48.214Z,945.9
2019-05-17T02:06:54.379Z,946
2019-05-17T02:10:03.133Z,946
2019-05-17T02:13:11.913Z,946
2019-05-17T02:16:21.074Z,946
2019-05-17T02:19:27.837Z,946
2019-05-17T02:22:33.954Z,945.9
2019-05-17T02:25:42.405Z,945.9
2019-05-17T02:28:48.569Z,945.9
2019-05-17T02:31:56.988Z,945.9
2019-05-17T02:35:04.709Z,945.9
2019-05-17T02:38:14.344Z,946
2019-05-17T02:41:23.787Z,946
2019-05-17T02:44:34.000Z,945.9
2019-05-17T02:47:44.224Z,946
2019-05-17T02:50:54.301Z,946
2019-05-17T02:54:04.690Z,946
2019-05-17T02:57:14.719Z,946
2019-05-17T03:00:24.472Z,946
2019-05-17T03:03:33.451Z,945.9
2019-05-17T03:06:39.735Z,945.9
2019-05-17T03:09:49.510Z,945.9
2019-05-17T03:13:34.229Z,945.9
2019-05-17T03:16:43.519Z,946
2019-05-17T03:19:53.364Z,946.1
2019-05-17T03:23:06.082Z,946
2019-05-17T03:26:14.399Z,945.9
2019-05-17T03:29:23.816Z,946
2019-05-17T03:32:36.993Z,946
2019-05-17T03:35:47.306Z,946
2019-05-17T03:38:54.718Z,946.1
2019-05-17T03:42:03.775Z,946.1
2019-05-17T03:45:13.863Z,946.1
2019-05-17T03:48:23.299Z,946.1
2019-05-17T03:51:29.450Z,946.1
2019-05-17T03:54:38.796Z,946.1
2019-05-17T03:57:48.192Z,946.1
2019-05-17T04:00:58.173Z,946.1
2019-05-17T04:04:04.670Z,946.2
2019-05-17T04:07:13.802Z,946.1
2019-05-17T04:10:23.420Z,946.1
2019-05-17T04:13:35.039Z,946.1
2019-05-17T04:16:44.179Z,946.2
2019-05-17T04:19:53.764Z,946.1
2019-05-17T04:23:03.382Z,946.2
2019-05-17T04:26:13.250Z,946.2
2019-05-17T04:29:23.135Z,946.2
2019-05-17T04:32:29.277Z,946.2
2019-05-17T04:35:38.569Z,946.2
2019-05-17T04:38:46.932Z,946.2
2019-05-17T04:41:56.120Z,946.3
2019-05-17T04:45:04.989Z,946.2
2019-05-17T04:48:14.283Z,946.2
2019-05-17T04:51:23.810Z,946.2
2019-05-17T04:54:33.833Z,946.2
2019-05-17T04:57:43.270Z,946.2
2019-05-17T05:00:53.311Z,946.3
2019-05-17T05:04:03.053Z,946.2
2019-05-17T05:07:09.809Z,946.3
2019-05-17T05:10:22.287Z,946.3
2019-05-17T05:13:28.651Z,946.3
2019-05-17T05:16:38.347Z,946.3
2019-05-17T05:19:47.406Z,946.3
2019-05-17T05:22:53.941Z,946.3
2019-05-17T05:26:02.775Z,946.2
2019-05-17T05:29:09.196Z,946.3
2019-05-17T05:32:18.384Z,946.3
2019-05-17T05:35:26.685Z,946.2
2019-05-17T05:38:33.356Z,946.3
2019-05-17T05:41:39.521Z,946.2
2019-05-17T05:44:48.250Z,946.2
2019-05-17T05:47:56.662Z,946.2
2019-05-17T05:51:06.274Z,946.2
2019-05-17T05:54:13.495Z,946.3
2019-05-17T05:57:22.366Z,946.2
2019-05-17T06:00:28.589Z,946.3
2019-05-17T06:03:37.416Z,946.2
2019-05-17T06:06:43.682Z,946.2
2019-05-17T06:09:52.254Z,946.2
2019-05-17T06:12:58.624Z,946.2
2019-05-17T06:16:07.932Z,946.2
2019-05-17T06:19:18.530Z,946.3
2019-05-17T06:22:26.806Z,946.3
2019-05-17T06:25:35.421Z,946.3
2019-05-17T06:28:43.690Z,946.4
2019-05-17T06:31:52.501Z,946.4
2019-05-17T06:34:58.723Z,946.5
2019-05-17T06:38:07.488Z,946.4
2019-05-17T06:41:16.479Z,946.4
2019-05-17T06:44:22.950Z,946.4
2019-05-17T06:47:29.074Z,946.5
2019-05-17T06:50:37.207Z,946.5
2019-05-17T06:53:44.819Z,946.5
2019-05-17T06:56:53.644Z,946.4
2019-05-17T07:00:12.205Z,946.5
2019-05-17T07:03:30.650Z,946.4
2019-05-17T07:06:36.916Z,946.4
2019-05-17T07:09:46.056Z,946.4
2019-05-17T07:13:02.610Z,946.4
2019-05-17T07:16:10.822Z,946.3
2019-05-17T07:19:17.026Z,946.3
2019-05-17T07:22:25.385Z,946.3
2019-05-17T07:25:34.082Z,946.2
2019-05-17T07:28:41.697Z,946.2
2019-05-17T07:31:50.340Z,946.2
2019-05-17T07:34:56.470Z,946.2
2019-05-17T07:38:05.285Z,946.2
2019-05-17T07:41:11.561Z,946.2
2019-05-17T07:44:17.717Z,946.3
2019-05-17T07:47:26.132Z,946.3
2019-05-17T07:50:34.314Z,946.3
2019-05-17T07:53:41.327Z,946.3
2019-05-17T07:56:47.529Z,946.4
2019-05-17T07:59:56.074Z,946.4
2019-05-17T08:03:05.052Z,946.4
2019-05-17T08:06:11.928Z,946.4
2019-05-17T08:09:21.010Z,946.3
2019-05-17T08:12:27.148Z,946.2
2019-05-17T08:15:35.924Z,946.2
2019-05-17T08:18:44.774Z,946.1
2019-05-17T08:21:51.350Z,946.2
2019-05-17T08:24:59.826Z,946.1
2019-05-17T08:28:06.339Z,946.1
2019-05-17T08:31:15.987Z,946.1
2019-05-17T08:34:24.404Z,946
2019-05-17T08:37:31.493Z,946
2019-05-17T08:40:40.053Z,946
2019-05-17T08:43:51.076Z,946
2019-05-17T08:46:59.383Z,945.9
2019-05-17T08:50:05.672Z,946
2019-05-17T08:53:12.046Z,946
2019-05-17T08:59:26.483Z,945.9
2019-05-17T09:02:35.142Z,945.8
2019-05-17T09:05:42.997Z,945.8
2019-05-17T09:08:51.256Z,945.8
2019-05-17T09:11:59.503Z,945.8
2019-05-17T09:15:05.858Z,945.8
2019-05-17T09:18:14.347Z,945.8
2019-05-17T09:21:23.176Z,945.8
2019-05-17T09:24:31.292Z,945.8
2019-05-17T09:27:39.455Z,945.8
2019-05-17T09:30:45.879Z,945.7
2019-05-17T09:33:52.046Z,945.8
2019-05-17T09:37:00.998Z,945.8
2019-05-17T09:40:09.277Z,945.7
2019-05-17T09:43:16.197Z,945.7
2019-05-17T09:46:24.890Z,945.6
2019-05-17T09:49:31.155Z,945.7
2019-05-17T09:52:37.288Z,945.7
2019-05-17T09:55:46.053Z,945.7
2019-05-17T09:58:54.671Z,945.7
2019-05-17T10:02:01.304Z,945.6
2019-05-17T10:05:07.510Z,945.7
2019-05-17T10:08:16.077Z,945.6
2019-05-17T10:11:22.292Z,945.6
2019-05-17T10:14:32.092Z,945.6
2019-05-17T10:17:38.312Z,945.5
2019-05-17T10:20:44.574Z,945.5
2019-05-17T10:23:51.153Z,945.6
2019-05-17T10:26:59.397Z,945.6
2019-05-17T10:30:05.939Z,945.6
2019-05-17T10:33:12.262Z,945.6
2019-05-17T10:36:21.340Z,945.6
2019-05-17T10:39:29.438Z,945.5
2019-05-17T10:42:35.967Z,945.5
2019-05-17T10:45:44.549Z,945.5
2019-05-17T10:48:51.325Z,945.6
2019-05-17T10:51:59.793Z,945.6
2019-05-17T10:55:11.646Z,945.5
2019-05-17T10:58:20.991Z,945.5
2019-05-17T11:01:30.336Z,945.5
2019-05-17T11:04:36.607Z,945.5
2019-05-17T11:07:45.666Z,945.5
2019-05-17T11:10:54.747Z,945.5
2019-05-17T11:14:01.026Z,945.5
2019-05-17T11:17:10.150Z,945.5
2019-05-17T11:20:16.428Z,945.4
2019-05-17T11:23:22.557Z,945.3
2019-05-17T11:26:28.849Z,945.3
2019-05-17T11:29:35.118Z,945.3
2019-05-17T11:32:41.367Z,945.3
2019-05-17T11:35:47.958Z,945.3
2019-05-17T11:38:56.868Z,945.3
2019-05-17T11:42:03.113Z,945.3
2019-05-17T11:45:09.318Z,945.3
2019-05-17T11:48:36.782Z,945.3
2019-05-17T11:51:42.949Z,945.3
2019-05-17T11:54:49.221Z,945.3
2019-05-17T11:57:56.552Z,945.3
2019-05-17T12:01:03.000Z,945.2
2019-05-17T12:04:09.342Z,945.3
2019-05-17T12:07:15.474Z,945.3
2019-05-17T12:10:21.671Z,945.2
2019-05-17T12:13:28.074Z,945.1
2019-05-17T12:16:34.411Z,945.2
2019-05-17T12:19:40.548Z,945.1
2019-05-17T12:22:46.739Z,945.2
2019-05-17T12:25:52.885Z,945.1
2019-05-17T12:28:59.007Z,945.1
2019-05-17T12:32:05.415Z,945.1
2019-05-17T12:35:11.672Z,945.1
2019-05-17T12:38:17.883Z,945.1
2019-05-17T12:41:24.099Z,945.1
2019-05-17T12:44:30.402Z,945
2019-05-17T12:47:36.545Z,945
2019-05-17T12:50:42.785Z,944.9
2019-05-17T12:53:49.168Z,944.9
2019-05-17T12:56:55.297Z,945
2019-05-17T13:00:01.427Z,944.9
2019-05-17T13:03:08.020Z,944.9
2019-05-17T13:06:14.272Z,944.9
2019-05-17T13:09:22.889Z,944.7
2019-05-17T13:12:29.066Z,944.7
2019-05-17T13:15:35.213Z,944.7
2019-05-17T13:18:41.398Z,944.6
2019-05-17T13:21:47.641Z,944.7
2019-05-17T13:24:53.930Z,944.7
2019-05-17T13:28:00.442Z,944.7
2019-05-17T13:31:07.036Z,944.6
2019-05-17T13:34:13.568Z,944.6
2019-05-17T13:37:20.044Z,944.7
2019-05-17T13:40:27.115Z,944.8
2019-05-17T13:43:33.738Z,944.8
2019-05-17T13:46:40.604Z,944.8
2019-05-17T13:49:46.776Z,944.8
2019-05-17T13:52:53.429Z,944.7
2019-05-17T13:55:59.752Z,944.8
2019-05-17T13:59:06.384Z,944.8
2019-05-17T14:02:12.914Z,944.8
2019-05-17T14:05:19.315Z,945
2019-05-17T14:08:25.793Z,945
2019-05-17T14:11:32.162Z,945
2019-05-17T14:14:38.566Z,945.1
2019-05-17T14:17:47.552Z,945
2019-05-17T14:20:54.135Z,945
2019-05-17T14:24:00.328Z,945
2019-05-17T14:27:06.757Z,945.1
2019-05-17T14:30:13.492Z,945.2
2019-05-17T14:33:20.699Z,945.3
2019-05-17T14:36:27.169Z,945.3
2019-05-17T14:39:33.570Z,945.4
2019-05-17T14:42:40.016Z,945.5
2019-05-17T14:45:46.621Z,945.6
2019-05-17T14:48:53.206Z,945.6
2019-05-17T14:51:59.774Z,945.6
2019-05-17T14:55:06.141Z,945.7
2019-05-17T14:58:12.527Z,945.6
2019-05-17T15:01:19.087Z,945.7
2019-05-17T15:04:25.395Z,945.5
2019-05-17T15:07:32.208Z,945.4
2019-05-17T15:10:38.903Z,945.2
2019-05-17T15:13:45.145Z,945.3
2019-05-17T15:16:51.646Z,945.4
2019-05-17T15:19:58.020Z,945.5
2019-05-17T15:23:04.614Z,945.4
2019-05-17T15:26:11.061Z,945.4
2019-05-17T15:29:17.348Z,945.4
2019-05-17T15:32:24.010Z,945.4
2019-05-17T15:35:30.261Z,945.3
2019-05-17T15:38:36.843Z,945.3
2019-05-17T15:41:43.461Z,945.4
2019-05-17T15:44:49.954Z,945.3
2019-05-17T15:47:56.714Z,945.3
2019-05-17T15:51:03.063Z,945.3
2019-05-17T15:54:09.709Z,945.3
2019-05-17T15:57:16.122Z,945.3
2019-05-17T16:00:22.558Z,945.2
2019-05-17T16:03:28.944Z,945.1
2019-05-17T16:06:35.523Z,945.1
2019-05-17T16:09:42.100Z,945.3
2019-05-17T16:13:04.260Z,945.5
2019-05-17T16:16:10.576Z,945.5
2019-05-17T16:19:16.873Z,945.5
2019-05-17T16:22:23.326Z,945.5
2019-05-17T16:25:29.754Z,945.5
2019-05-17T16:28:39.569Z,945.5
2019-05-17T16:31:46.001Z,945.6
2019-05-17T16:34:52.378Z,945.6
2019-05-17T16:37:58.852Z,945.6
2019-05-17T16:41:05.349Z,945.7
2019-05-17T16:44:14.235Z,945.7
2019-05-17T16:47:21.226Z,945.7
2019-05-17T16:50:27.706Z,945.6
2019-05-17T16:53:34.080Z,945.7
2019-05-17T16:56:40.321Z,945.7
2019-05-17T16:59:46.696Z,945.6
2019-05-17T17:02:53.321Z,945.6
2019-05-17T17:05:59.659Z,945.7
2019-05-17T17:09:06.215Z,945.7
2019-05-17T17:12:12.496Z,945.9
2019-05-17T17:15:18.969Z,946
2019-05-17T17:18:25.284Z,945.9
2019-05-17T17:21:31.789Z,945.8
2019-05-17T17:24:38.085Z,945.8
2019-05-17T17:27:44.549Z,945.8
2019-05-17T17:30:51.047Z,945.9
2019-05-17T17:33:57.517Z,946
2019-05-17T17:37:04.101Z,946
2019-05-17T17:40:10.470Z,946.1
2019-05-17T17:43:16.880Z,946.1
2019-05-17T17:46:23.315Z,946.1
2019-05-17T17:49:29.627Z,946.1
2019-05-17T17:52:36.315Z,946.1
2019-05-17T17:55:42.596Z,946.1
2019-05-17T17:58:48.938Z,946.1
2019-05-17T18:01:55.226Z,946.1
2019-05-17T18:05:01.582Z,946
2019-05-17T18:08:08.368Z,946
2019-05-17T18:11:14.685Z,946
2019-05-17T18:14:20.952Z,946
2019-05-17T18:17:27.657Z,946
2019-05-17T18:20:34.197Z,946
2019-05-17T18:23:40.433Z,946
2019-05-17T18:26:46.772Z,946
2019-05-17T18:29:53.139Z,946
2019-05-17T18:32:59.347Z,946
2019-05-17T18:36:06.141Z,946
2019-05-17T18:39:12.386Z,945.9
2019-05-17T18:42:18.821Z,946
2019-05-17T18:45:25.399Z,946.1
2019-05-17T18:48:31.974Z,946
2019-05-17T18:51:38.444Z,946
2019-05-17T18:54:44.747Z,946
2019-05-17T18:57:51.440Z,946
2019-05-17T19:00:57.814Z,946.1
2019-05-17T19:04:04.462Z,946.1
2019-05-17T19:07:10.898Z,946.1
2019-05-17T19:10:17.146Z,946.2
2019-05-17T19:13:23.643Z,946.2
2019-05-17T19:16:29.996Z,946.3
2019-05-17T19:19:36.606Z,946.3
2019-05-17T19:22:43.162Z,946.4
2019-05-17T19:25:49.391Z,946.4
2019-05-17T19:28:55.906Z,946.5
2019-05-17T19:32:02.310Z,946.6
2019-05-17T19:35:08.569Z,946.6
2019-05-17T19:38:15.105Z,946.6
2019-05-17T19:41:21.616Z,946.7
2019-05-17T19:44:27.945Z,946.6
2019-05-17T19:47:34.512Z,946.7
2019-05-17T19:50:40.954Z,946.7
2019-05-17T19:53:47.462Z,946.6
2019-05-17T19:56:53.944Z,946.7
2019-05-17T20:00:00.343Z,946.6
2019-05-17T20:03:06.877Z,946.6
2019-05-17T20:06:13.351Z,946.6
2019-05-17T20:09:19.812Z,946.5
2019-05-17T20:12:26.286Z,946.3
2019-05-17T20:15:35.742Z,946.3
2019-05-17T20:18:42.088Z,946.3
2019-05-17T20:21:48.361Z,946.2
2019-05-17T20:24:54.731Z,946.2
2019-05-17T20:28:01.196Z,946.1
2019-05-17T20:31:07.571Z,946.1
2019-05-17T20:34:14.060Z,946.2
2019-05-17T20:37:20.335Z,946.2
2019-05-17T20:40:27.003Z,946.3
2019-05-17T20:43:33.334Z,946.1
2019-05-17T20:46:39.728Z,946.1
2019-05-17T20:49:46.080Z,946.1
2019-05-17T20:52:52.303Z,946.1
2019-05-17T20:55:58.722Z,946
2019-05-17T20:59:04.944Z,946
2019-05-17T21:02:11.461Z,946
2019-05-17T21:05:17.894Z,946.1
2019-05-17T21:08:28.038Z,946.1
2019-05-17T21:11:50.646Z,946.2
2019-05-17T21:14:57.834Z,946.2
2019-05-17T21:18:04.227Z,946.2
2019-05-17T21:21:10.677Z,946.2
2019-05-17T21:24:17.029Z,946.2
2019-05-17T21:27:23.514Z,946.2
2019-05-17T21:30:30.110Z,946.2
2019-05-17T21:33:36.564Z,946.2
2019-05-17T21:36:43.031Z,946.2
2019-05-17T21:39:49.367Z,946.3
2019-05-17T21:42:55.819Z,946.3
2019-05-17T21:46:05.619Z,946.3
2019-05-17T21:49:11.986Z,946.3
2019-05-17T21:52:18.497Z,946.3
2019-05-17T21:55:24.926Z,946.4
2019-05-17T21:58:31.399Z,946.4
2019-05-17T22:01:37.645Z,946.3
2019-05-17T22:04:44.232Z,946.2
2019-05-17T22:07:50.627Z,946.3
2019-05-17T22:10:57.069Z,946.2
2019-05-17T22:14:03.543Z,946.3
2019-05-17T22:17:09.980Z,946.2
2019-05-17T22:20:16.386Z,946.2
2019-05-17T22:23:22.752Z,946.2
2019-05-17T22:26:28.989Z,946.1
2019-05-17T22:29:35.414Z,946.1
2019-05-17T22:32:41.761Z,946
2019-05-17T22:35:48.143Z,946
2019-05-17T22:38:54.414Z,946
2019-05-17T22:42:00.755Z,945.9
2019-05-17T22:45:07.262Z,945.9
2019-05-17T22:48:13.713Z,945.9
2019-05-17T22:51:20.186Z,945.9
2019-05-17T22:54:26.631Z,945.8
2019-05-17T22:57:33.022Z,945.8
2019-05-17T23:00:39.283Z,945.8
2019-05-17T23:03:45.654Z,945.9
2019-05-17T23:06:52.258Z,946
2019-05-17T23:09:58.605Z,945.9
2019-05-17T23:13:05.080Z,946
2019-05-17T23:16:11.323Z,946
2019-05-17T23:19:17.762Z,946
2019-05-17T23:22:24.195Z,946
2019-05-17T23:25:30.499Z,946.1
2019-05-17T23:28:36.910Z,946.1
2019-05-17T23:31:43.333Z,946.2
2019-05-17T23:34:49.953Z,946.2
2019-05-17T23:37:56.325Z,946.2
2019-05-17T23:41:02.720Z,946.3
2019-05-17T23:44:09.081Z,946.3
2019-05-17T23:47:15.477Z,946.3
2019-05-17T23:50:21.800Z,946.3
2019-05-17T23:53:27.985Z,946.3
2019-05-17T23:56:34.427Z,946.3
2019-05-17T23:59:40.896Z,946.3
